Terminal Aerodrome Forecast
Issued by NWS North Platte, NE

Home | Current Version | Previous Version | Text Only | Print | Product List | Glossary Off
Versions: 1 2 3 4 5 6 7 8 9 10 11 12 13 14 15 16

604
FTUS43 KLBF 042320
TAFVTN
TAF
KVTN 042320Z 0500/0524 19007KT P6SM SCT200
     FM050400 21009KT P6SM BKN200
     FM050900 23009KT P6SM BKN120 WS020/27035KT
     FM051300 25009KT P6SM BKN100
     FM051700 31015G23KT P6SM BKN045
     FM051900 32019G26KT P6SM SCT015 BKN035=

USA.gov is the U.S. government's official web portal to all federal, state and local government web resources and services.